sensor_id;sensor_type;location;lat;lon;timestamp;temperature;humidity
47921;DHT22;33686;48.770;9.186;2022-08-19T05:19:35;20.30;99.90
47921;DHT22;33686;48.770;9.186;2022-08-19T05:22:19;20.30;99.90
47921;DHT22;33686;48.770;9.186;2022-08-19T05:24:58;20.30;99.90
47921;DHT22;33686;48.770;9.186;2022-08-19T05:27:24;20.30;99.90
47921;DHT22;33686;48.770;9.186;2022-08-19T05:29:49;20.20;99.90
47921;DHT22;33686;48.770;9.186;2022-08-19T05:32:15;20.10;99.90
47921;DHT22;33686;48.770;9.186;2022-08-19T05:34:41;20.10;99.90
47921;DHT22;33686;48.770;9.186;2022-08-19T05:37:07;20.20;99.90
47921;DHT22;33686;48.770;9.186;2022-08-19T05:39:34;20.30;99.90
47921;DHT22;33686;48.770;9.186;2022-08-19T05:42:01;20.30;99.90
47921;DHT22;33686;48.770;9.186;2022-08-19T05:44:28;20.20;99.90
47921;DHT22;33686;48.770;9.186;2022-08-19T05:46:57;20.10;99.90
47921;DHT22;33686;48.770;9.186;2022-08-19T05:49:23;20.30;99.90
47921;DHT22;33686;48.770;9.186;2022-08-19T05:51:49;20.20;99.90
47921;DHT22;33686;48.770;9.186;2022-08-19T05:54:14;20.20;99.90
47921;DHT22;33686;48.770;9.186;2022-08-19T05:56:40;20.20;99.90
47921;DHT22;33686;48.770;9.186;2022-08-19T05:59:07;20.20;99.90
47921;DHT22;33686;48.770;9.186;2022-08-19T06:01:35;20.30;99.90
47921;DHT22;33686;48.770;9.186;2022-08-19T06:04:01;20.30;99.90
47921;DHT22;33686;48.770;9.186;2022-08-19T06:06:27;20.30;99.90
47921;DHT22;33686;48.770;9.186;2022-08-19T06:08:53;20.30;99.90
47921;DHT22;33686;48.770;9.186;2022-08-19T06:11:23;20.30;99.90
47921;DHT22;33686;48.770;9.186;2022-08-19T06:13:50;20.20;99.90
47921;DHT22;33686;48.770;9.186;2022-08-19T06:16:21;20.30;99.90
47921;DHT22;33686;48.770;9.186;2022-08-19T06:18:48;20.20;99.90
47921;DHT22;33686;48.770;9.186;2022-08-19T06:21:14;20.30;99.90
47921;DHT22;33686;48.770;9.186;2022-08-19T06:23:39;20.30;99.90
47921;DHT22;33686;48.770;9.186;2022-08-19T06:26:05;20.40;99.90
47921;DHT22;33686;48.770;9.186;2022-08-19T06:28:31;20.30;99.90
47921;DHT22;33686;48.770;9.186;2022-08-19T06:30:58;20.40;99.90
47921;DHT22;33686;48.770;9.186;2022-08-19T06:33:23;20.50;99.90
47921;DHT22;33686;48.770;9.186;2022-08-19T06:35:49;20.40;99.90
47921;DHT22;33686;48.770;9.186;2022-08-19T06:38:14;20.30;99.90
47921;DHT22;33686;48.770;9.186;2022-08-19T06:40:40;20.30;99.90
47921;DHT22;33686;48.770;9.186;2022-08-19T06:43:06;20.10;99.90
47921;DHT22;33686;48.770;9.186;2022-08-19T06:45:31;20.00;99.90
47921;DHT22;33686;48.770;9.186;2022-08-19T06:47:57;20.10;99.90
47921;DHT22;33686;48.770;9.186;2022-08-19T06:50:23;20.10;99.90
47921;DHT22;33686;48.770;9.186;2022-08-19T06:52:48;20.00;99.90
47921;DHT22;33686;48.770;9.186;2022-08-19T06:55:14;20.00;99.90
47921;DHT22;33686;48.770;9.186;2022-08-19T06:57:41;20.10;99.90
47921;DHT22;33686;48.770;9.186;2022-08-19T07:00:07;20.10;99.90
47921;DHT22;33686;48.770;9.186;2022-08-19T07:02:38;20.10;99.90
47921;DHT22;33686;48.770;9.186;2022-08-19T07:05:04;20.20;99.90
47921;DHT22;33686;48.770;9.186;2022-08-19T07:07:30;20.20;99.90
47921;DHT22;33686;48.770;9.186;2022-08-19T07:09:56;20.10;99.90
47921;DHT22;33686;48.770;9.186;2022-08-19T07:12:22;20.00;99.90
47921;DHT22;33686;48.770;9.186;2022-08-19T07:14:47;20.20;99.90
47921;DHT22;33686;48.770;9.186;2022-08-19T07:17:14;20.20;99.90
47921;DHT22;33686;48.770;9.186;2022-08-19T07:19:40;20.20;99.90
47921;DHT22;33686;48.770;9.186;2022-08-19T07:22:07;20.20;99.90
47921;DHT22;33686;48.770;9.186;2022-08-19T07:24:32;20.10;99.90
47921;DHT22;33686;48.770;9.186;2022-08-19T07:27:00;20.10;99.90
47921;DHT22;33686;48.770;9.186;2022-08-19T07:29:31;20.00;99.90
47921;DHT22;33686;48.770;9.186;2022-08-19T07:31:58;20.10;99.90
47921;DHT22;33686;48.770;9.186;2022-08-19T07:34:24;20.10;99.90
47921;DHT22;33686;48.770;9.186;2022-08-19T07:36:50;20.00;99.90
47921;DHT22;33686;48.770;9.186;2022-08-19T07:39:17;20.10;99.90
47921;DHT22;33686;48.770;9.186;2022-08-19T07:41:43;20.10;99.90
47921;DHT22;33686;48.770;9.186;2022-08-19T07:44:09;20.10;99.90
47921;DHT22;33686;48.770;9.186;2022-08-19T07:46:36;20.00;99.90
47921;DHT22;33686;48.770;9.186;2022-08-19T07:49:03;20.00;99.90
47921;DHT22;33686;48.770;9.186;2022-08-19T07:51:28;20.00;99.90
47921;DHT22;33686;48.770;9.186;2022-08-19T07:53:54;20.10;99.90
47921;DHT22;33686;48.770;9.186;2022-08-19T07:56:20;20.10;99.90
47921;DHT22;33686;48.770;9.186;2022-08-19T07:58:47;20.10;99.90
47921;DHT22;33686;48.770;9.186;2022-08-19T08:01:14;20.10;99.90
47921;DHT22;33686;48.770;9.186;2022-08-19T08:03:40;20.10;99.90
47921;DHT22;33686;48.770;9.186;2022-08-19T08:06:24;20.20;99.90
47921;DHT22;33686;48.770;9.186;2022-08-19T08:09:08;20.10;99.90
47921;DHT22;33686;48.770;9.186;2022-08-19T08:11:46;20.00;99.90
47921;DHT22;33686;48.770;9.186;2022-08-19T08:14:22;20.20;99.90
47921;DHT22;33686;48.770;9.186;2022-08-19T08:16:48;20.10;99.90
47921;DHT22;33686;48.770;9.186;2022-08-19T08:19:15;19.90;99.90
47921;DHT22;33686;48.770;9.186;2022-08-19T08:21:41;19.90;99.90
47921;DHT22;33686;48.770;9.186;2022-08-19T08:24:07;19.80;99.90
47921;DHT22;33686;48.770;9.186;2022-08-19T08:26:33;19.80;99.90
47921;DHT22;33686;48.770;9.186;2022-08-19T08:28:59;19.70;99.90
47921;DHT22;33686;48.770;9.186;2022-08-19T08:31:24;19.60;99.90
47921;DHT22;33686;48.770;9.186;2022-08-19T08:33:50;19.70;99.90
47921;DHT22;33686;48.770;9.186;2022-08-19T08:36:16;19.70;99.90
47921;DHT22;33686;48.770;9.186;2022-08-19T08:38:42;19.70;99.90
47921;DHT22;33686;48.770;9.186;2022-08-19T08:43:54;19.80;99.90
47921;DHT22;33686;48.770;9.186;2022-08-19T08:46:22;19.80;99.90
47921;DHT22;33686;48.770;9.186;2022-08-19T08:48:52;19.80;99.90
47921;DHT22;33686;48.770;9.186;2022-08-19T08:51:22;19.80;99.90
47921;DHT22;33686;48.770;9.186;2022-08-19T08:53:49;19.90;99.90
47921;DHT22;33686;48.770;9.186;2022-08-19T08:56:16;19.90;99.90
47921;DHT22;33686;48.770;9.186;2022-08-19T08:58:56;20.00;99.90
47921;DHT22;33686;48.770;9.186;2022-08-19T09:01:22;20.10;99.90
47921;DHT22;33686;48.770;9.186;2022-08-19T09:03:48;20.20;99.90
47921;DHT22;33686;48.770;9.186;2022-08-19T09:06:25;20.20;99.90
47921;DHT22;33686;48.770;9.186;2022-08-19T09:09:05;20.20;99.90
47921;DHT22;33686;48.770;9.186;2022-08-19T09:16:44;20.50;99.90
47921;DHT22;33686;48.770;9.186;2022-08-19T09:19:10;20.50;99.90
47921;DHT22;33686;48.770;9.186;2022-08-19T09:21:36;20.50;99.90
47921;DHT22;33686;48.770;9.186;2022-08-19T09:24:02;20.60;99.90
47921;DHT22;33686;48.770;9.186;2022-08-19T09:26:28;20.60;99.90
47921;DHT22;33686;48.770;9.186;2022-08-19T09:28:53;20.50;99.90
47921;DHT22;33686;48.770;9.186;2022-08-19T09:31:21;20.60;99.90
47921;DHT22;33686;48.770;9.186;2022-08-19T09:33:47;20.60;99.90
47921;DHT22;33686;48.770;9.186;2022-08-19T09:36:14;20.60;99.90
47921;DHT22;33686;48.770;9.186;2022-08-19T09:38:40;20.70;99.90
47921;DHT22;33686;48.770;9.186;2022-08-19T09:41:12;20.70;99.90
47921;DHT22;33686;48.770;9.186;2022-08-19T09:43:39;20.70;99.90
47921;DHT22;33686;48.770;9.186;2022-08-19T09:46:05;20.70;99.90
47921;DHT22;33686;48.770;9.186;2022-08-19T09:48:32;20.80;99.90
47921;DHT22;33686;48.770;9.186;2022-08-19T09:53:29;20.80;99.90
47921;DHT22;33686;48.770;9.186;2022-08-19T09:55:55;20.90;99.90
47921;DHT22;33686;48.770;9.186;2022-08-19T09:58:21;20.90;99.90
47921;DHT22;33686;48.770;9.186;2022-08-19T10:00:48;21.00;99.90
47921;DHT22;33686;48.770;9.186;2022-08-19T10:03:13;21.10;99.90
47921;DHT22;33686;48.770;9.186;2022-08-19T10:05:39;21.20;99.90
47921;DHT22;33686;48.770;9.186;2022-08-19T10:08:14;21.10;99.90
47921;DHT22;33686;48.770;9.186;2022-08-19T10:10:41;21.20;99.90
47921;DHT22;33686;48.770;9.186;2022-08-19T10:13:10;21.20;99.90
47921;DHT22;33686;48.770;9.186;2022-08-19T10:15:36;21.20;99.90
47921;DHT22;33686;48.770;9.186;2022-08-19T10:18:04;21.20;99.90
47921;DHT22;33686;48.770;9.186;2022-08-19T10:20:30;21.20;99.90
47921;DHT22;33686;48.770;9.186;2022-08-19T10:22:57;21.20;99.90
47921;DHT22;33686;48.770;9.186;2022-08-19T10:25:25;21.30;99.90
47921;DHT22;33686;48.770;9.186;2022-08-19T10:27:52;21.40;99.90
47921;DHT22;33686;48.770;9.186;2022-08-19T10:30:17;21.30;99.90
47921;DHT22;33686;48.770;9.186;2022-08-19T10:32:44;21.20;99.90
47921;DHT22;33686;48.770;9.186;2022-08-19T10:35:11;21.30;99.90
47921;DHT22;33686;48.770;9.186;2022-08-19T10:37:37;21.30;99.90
47921;DHT22;33686;48.770;9.186;2022-08-19T10:40:06;21.30;99.90
47921;DHT22;33686;48.770;9.186;2022-08-19T10:42:34;21.30;99.90
47921;DHT22;33686;48.770;9.186;2022-08-19T10:44:59;21.40;99.90
47921;DHT22;33686;48.770;9.186;2022-08-19T10:47:25;21.40;99.90
47921;DHT22;33686;48.770;9.186;2022-08-19T10:49:51;21.50;99.90
47921;DHT22;33686;48.770;9.186;2022-08-19T10:52:35;21.60;99.90
47921;DHT22;33686;48.770;9.186;2022-08-19T10:55:03;21.80;99.90
47921;DHT22;33686;48.770;9.186;2022-08-19T10:57:47;22.00;99.90
47921;DHT22;33686;48.770;9.186;2022-08-19T11:00:13;22.10;99.90
47921;DHT22;33686;48.770;9.186;2022-08-19T11:02:39;22.10;99.90
47921;DHT22;33686;48.770;9.186;2022-08-19T11:05:05;22.00;99.90
47921;DHT22;33686;48.770;9.186;2022-08-19T11:07:32;21.90;99.90
47921;DHT22;33686;48.770;9.186;2022-08-19T11:09:57;21.90;99.90
47921;DHT22;33686;48.770;9.186;2022-08-19T11:12:23;21.90;99.90
47921;DHT22;33686;48.770;9.186;2022-08-19T11:14:49;21.90;99.90
47921;DHT22;33686;48.770;9.186;2022-08-19T11:17:15;21.90;99.90
47921;DHT22;33686;48.770;9.186;2022-08-19T11:19:41;21.90;99.90
47921;DHT22;33686;48.770;9.186;2022-08-19T11:22:10;21.90;99.90
47921;DHT22;33686;48.770;9.186;2022-08-19T11:24:36;21.90;99.90
47921;DHT22;33686;48.770;9.186;2022-08-19T11:27:06;22.00;99.90
47921;DHT22;33686;48.770;9.186;2022-08-19T11:29:32;22.10;99.90
47921;DHT22;33686;48.770;9.186;2022-08-19T11:31:59;22.20;99.90
47921;DHT22;33686;48.770;9.186;2022-08-19T11:34:27;22.30;99.90
47921;DHT22;33686;48.770;9.186;2022-08-19T11:36:53;22.20;99.90
47921;DHT22;33686;48.770;9.186;2022-08-19T11:39:23;22.20;99.90
47921;DHT22;33686;48.770;9.186;2022-08-19T11:41:48;22.40;99.90
47921;DHT22;33686;48.770;9.186;2022-08-19T11:44:14;22.40;99.90
47921;DHT22;33686;48.770;9.186;2022-08-19T11:46:41;22.50;99.90
47921;DHT22;33686;48.770;9.186;2022-08-19T11:49:06;22.40;99.90
47921;DHT22;33686;48.770;9.186;2022-08-19T11:51:35;22.50;99.90
47921;DHT22;33686;48.770;9.186;2022-08-19T11:54:01;22.50;99.90
47921;DHT22;33686;48.770;9.186;2022-08-19T11:56:27;22.50;99.90
47921;DHT22;33686;48.770;9.186;2022-08-19T11:58:53;22.50;99.90
47921;DHT22;33686;48.770;9.186;2022-08-19T12:01:20;22.60;99.90
47921;DHT22;33686;48.770;9.186;2022-08-19T12:03:47;22.60;99.90
47921;DHT22;33686;48.770;9.186;2022-08-19T12:06:14;22.60;99.90
47921;DHT22;33686;48.770;9.186;2022-08-19T12:08:40;22.70;99.90
47921;DHT22;33686;48.770;9.186;2022-08-19T12:11:06;22.70;99.90
47921;DHT22;33686;48.770;9.186;2022-08-19T12:13:35;22.80;99.90
47921;DHT22;33686;48.770;9.186;2022-08-19T12:16:06;22.70;99.90
47921;DHT22;33686;48.770;9.186;2022-08-19T12:18:32;22.70;99.90
47921;DHT22;33686;48.770;9.186;2022-08-19T12:20:58;22.70;99.90
47921;DHT22;33686;48.770;9.186;2022-08-19T12:23:25;22.60;99.90
47921;DHT22;33686;48.770;9.186;2022-08-19T12:25:51;22.60;99.90
47921;DHT22;33686;48.770;9.186;2022-08-19T12:28:17;22.40;99.90
47921;DHT22;33686;48.770;9.186;2022-08-19T12:30:43;22.40;99.90
47921;DHT22;33686;48.770;9.186;2022-08-19T12:33:09;22.30;99.90
47921;DHT22;33686;48.770;9.186;2022-08-19T12:35:35;22.20;99.90
47921;DHT22;33686;48.770;9.186;2022-08-19T12:38:01;21.80;99.90
47921;DHT22;33686;48.770;9.186;2022-08-19T12:40:29;21.60;99.90
47921;DHT22;33686;48.770;9.186;2022-08-19T12:42:54;21.50;99.90
47921;DHT22;33686;48.770;9.186;2022-08-19T12:45:20;21.20;99.90
47921;DHT22;33686;48.770;9.186;2022-08-19T12:47:46;21.10;99.90
47921;DHT22;33686;48.770;9.186;2022-08-19T12:50:12;21.00;99.90
47921;DHT22;33686;48.770;9.186;2022-08-19T12:52:37;21.10;99.90
47921;DHT22;33686;48.770;9.186;2022-08-19T12:55:04;21.00;99.90
47921;DHT22;33686;48.770;9.186;2022-08-19T12:57:30;21.00;99.90
47921;DHT22;33686;48.770;9.186;2022-08-19T13:00:08;21.10;99.90
47921;DHT22;33686;48.770;9.186;2022-08-19T13:02:37;21.20;99.90
47921;DHT22;33686;48.770;9.186;2022-08-19T13:05:03;21.20;99.90
47921;DHT22;33686;48.770;9.186;2022-08-19T13:07:29;21.10;99.90
47921;DHT22;33686;48.770;9.186;2022-08-19T13:09:55;21.10;99.90
47921;DHT22;33686;48.770;9.186;2022-08-19T13:12:21;21.00;99.90
47921;DHT22;33686;48.770;9.186;2022-08-19T13:14:46;21.10;99.90
47921;DHT22;33686;48.770;9.186;2022-08-19T13:17:16;21.20;99.90
47921;DHT22;33686;48.770;9.186;2022-08-19T13:19:41;21.20;99.90
47921;DHT22;33686;48.770;9.186;2022-08-19T13:22:07;21.30;99.90
47921;DHT22;33686;48.770;9.186;2022-08-19T13:24:33;21.10;99.90
47921;DHT22;33686;48.770;9.186;2022-08-19T13:26:59;21.00;99.90
47921;DHT22;33686;48.770;9.186;2022-08-19T13:29:24;20.90;99.90
47921;DHT22;33686;48.770;9.186;2022-08-19T13:32:09;20.90;99.90
47921;DHT22;33686;48.770;9.186;2022-08-19T13:34:53;20.80;99.90
47921;DHT22;33686;48.770;9.186;2022-08-19T13:37:18;20.80;99.90
47921;DHT22;33686;48.770;9.186;2022-08-19T13:40:04;20.60;99.90
47921;DHT22;33686;48.770;9.186;2022-08-19T13:42:30;20.60;99.90
47921;DHT22;33686;48.770;9.186;2022-08-19T13:44:56;20.60;99.90
47921;DHT22;33686;48.770;9.186;2022-08-19T13:47:23;20.60;99.90
47921;DHT22;33686;48.770;9.186;2022-08-19T13:49:49;20.50;99.90
47921;DHT22;33686;48.770;9.186;2022-08-19T13:52:15;20.50;99.90
47921;DHT22;33686;48.770;9.186;2022-08-19T13:54:40;20.40;99.90
47921;DHT22;33686;48.770;9.186;2022-08-19T13:57:09;20.30;99.90
47921;DHT22;33686;48.770;9.186;2022-08-19T13:59:34;20.20;99.90
47921;DHT22;33686;48.770;9.186;2022-08-19T14:02:00;20.10;99.90
47921;DHT22;33686;48.770;9.186;2022-08-19T14:04:26;20.10;99.90
47921;DHT22;33686;48.770;9.186;2022-08-19T14:06:52;20.10;99.90
47921;DHT22;33686;48.770;9.186;2022-08-19T14:09:18;20.30;99.90
47921;DHT22;33686;48.770;9.186;2022-08-19T14:11:43;20.00;99.90
47921;DHT22;33686;48.770;9.186;2022-08-19T14:14:11;20.10;99.90
47921;DHT22;33686;48.770;9.186;2022-08-19T14:16:37;20.30;99.90
47921;DHT22;33686;48.770;9.186;2022-08-19T14:19:03;20.30;99.90
47921;DHT22;33686;48.770;9.186;2022-08-19T14:21:28;20.10;99.90
47921;DHT22;33686;48.770;9.186;2022-08-19T14:23:54;20.10;99.90
47921;DHT22;33686;48.770;9.186;2022-08-19T14:26:20;20.30;99.90
47921;DHT22;33686;48.770;9.186;2022-08-19T14:28:46;20.50;99.90
47921;DHT22;33686;48.770;9.186;2022-08-19T14:31:12;20.50;99.90
47921;DHT22;33686;48.770;9.186;2022-08-19T14:33:38;20.40;99.90
47921;DHT22;33686;48.770;9.186;2022-08-19T14:36:04;20.40;99.90
47921;DHT22;33686;48.770;9.186;2022-08-19T14:38:30;20.50;99.90
47921;DHT22;33686;48.770;9.186;2022-08-19T14:43:34;20.50;99.90
47921;DHT22;33686;48.770;9.186;2022-08-19T14:45:59;20.80;99.90
47921;DHT22;33686;48.770;9.186;2022-08-19T14:48:25;21.00;99.90
47921;DHT22;33686;48.770;9.186;2022-08-19T14:50:51;21.20;99.90
47921;DHT22;33686;48.770;9.186;2022-08-19T14:53:17;21.20;99.90
47921;DHT22;33686;48.770;9.186;2022-08-19T14:55:44;21.30;99.90
47921;DHT22;33686;48.770;9.186;2022-08-19T14:58:10;21.30;99.90
47921;DHT22;33686;48.770;9.186;2022-08-19T15:00:36;21.20;99.90
47921;DHT22;33686;48.770;9.186;2022-08-19T15:03:01;21.20;99.90
47921;DHT22;33686;48.770;9.186;2022-08-19T15:05:27;21.20;99.90
47921;DHT22;33686;48.770;9.186;2022-08-19T15:07:53;21.10;99.90
47921;DHT22;33686;48.770;9.186;2022-08-19T15:10:19;21.10;99.90
47921;DHT22;33686;48.770;9.186;2022-08-19T15:12:46;21.00;99.90
47921;DHT22;33686;48.770;9.186;2022-08-19T15:15:14;21.20;99.90
47921;DHT22;33686;48.770;9.186;2022-08-19T15:17:40;21.30;99.90
47921;DHT22;33686;48.770;9.186;2022-08-19T15:20:06;21.50;99.90
47921;DHT22;33686;48.770;9.186;2022-08-19T15:22:32;21.70;99.90
47921;DHT22;33686;48.770;9.186;2022-08-19T15:24:58;21.80;99.90
47921;DHT22;33686;48.770;9.186;2022-08-19T15:27:23;21.80;99.90
47921;DHT22;33686;48.770;9.186;2022-08-19T15:29:49;21.80;99.90
47921;DHT22;33686;48.770;9.186;2022-08-19T15:32:14;22.10;99.90
47921;DHT22;33686;48.770;9.186;2022-08-19T15:34:44;22.00;99.90
47921;DHT22;33686;48.770;9.186;2022-08-19T15:37:13;22.20;99.90
47921;DHT22;33686;48.770;9.186;2022-08-19T15:39:39;22.10;99.90
47921;DHT22;33686;48.770;9.186;2022-08-19T15:42:05;21.90;99.90
47921;DHT22;33686;48.770;9.186;2022-08-19T15:44:31;21.60;99.90
47921;DHT22;33686;48.770;9.186;2022-08-19T15:46:56;21.50;99.90
47921;DHT22;33686;48.770;9.186;2022-08-19T15:49:22;21.70;99.90
47921;DHT22;33686;48.770;9.186;2022-08-19T15:51:48;21.60;99.90
47921;DHT22;33686;48.770;9.186;2022-08-19T15:54:15;21.50;99.90
47921;DHT22;33686;48.770;9.186;2022-08-19T15:56:41;21.50;99.90
47921;DHT22;33686;48.770;9.186;2022-08-19T15:59:25;21.50;99.90
47921;DHT22;33686;48.770;9.186;2022-08-19T16:02:09;21.50;99.90
47921;DHT22;33686;48.770;9.186;2022-08-19T16:04:53;21.70;99.90
47921;DHT22;33686;48.770;9.186;2022-08-19T16:07:37;21.90;99.90
47921;DHT22;33686;48.770;9.186;2022-08-19T16:10:03;22.00;99.90
47921;DHT22;33686;48.770;9.186;2022-08-19T16:12:29;22.10;99.90
47921;DHT22;33686;48.770;9.186;2022-08-19T16:14:56;22.10;99.90
47921;DHT22;33686;48.770;9.186;2022-08-19T16:17:21;22.10;99.90
47921;DHT22;33686;48.770;9.186;2022-08-19T16:19:47;22.00;99.90
47921;DHT22;33686;48.770;9.186;2022-08-19T16:22:13;21.80;99.90
47921;DHT22;33686;48.770;9.186;2022-08-19T16:24:38;21.70;99.90
47921;DHT22;33686;48.770;9.186;2022-08-19T16:27:04;21.40;99.90
47921;DHT22;33686;48.770;9.186;2022-08-19T16:29:30;21.40;99.90
47921;DHT22;33686;48.770;9.186;2022-08-19T16:31:58;21.50;99.90
47921;DHT22;33686;48.770;9.186;2022-08-19T16:34:27;21.40;99.90
47921;DHT22;33686;48.770;9.186;2022-08-19T16:36:52;21.30;99.90
47921;DHT22;33686;48.770;9.186;2022-08-19T16:39:18;21.10;99.90
47921;DHT22;33686;48.770;9.186;2022-08-19T16:41:44;21.00;99.90
47921;DHT22;33686;48.770;9.186;2022-08-19T16:44:11;20.90;99.90
47921;DHT22;33686;48.770;9.186;2022-08-19T16:46:37;21.00;99.90
47921;DHT22;33686;48.770;9.186;2022-08-19T16:49:06;20.90;99.90
47921;DHT22;33686;48.770;9.186;2022-08-19T16:51:32;20.90;99.90
47921;DHT22;33686;48.770;9.186;2022-08-19T16:53:58;20.70;99.90
47921;DHT22;33686;48.770;9.186;2022-08-19T16:56:24;20.60;99.90
47921;DHT22;33686;48.770;9.186;2022-08-19T16:58:50;20.40;99.90
47921;DHT22;33686;48.770;9.186;2022-08-19T17:01:16;20.60;99.90
47921;DHT22;33686;48.770;9.186;2022-08-19T17:03:42;20.50;99.90
47921;DHT22;33686;48.770;9.186;2022-08-19T17:06:15;20.50;99.90
47921;DHT22;33686;48.770;9.186;2022-08-19T17:08:41;20.60;99.90
47921;DHT22;33686;48.770;9.186;2022-08-19T17:11:07;20.50;99.90
47921;DHT22;33686;48.770;9.186;2022-08-19T17:13:33;20.60;99.90
47921;DHT22;33686;48.770;9.186;2022-08-19T17:15:58;20.60;99.90
47921;DHT22;33686;48.770;9.186;2022-08-19T17:18:24;20.50;99.90
47921;DHT22;33686;48.770;9.186;2022-08-19T17:20:51;20.50;99.90
47921;DHT22;33686;48.770;9.186;2022-08-19T17:23:17;20.40;99.90
47921;DHT22;33686;48.770;9.186;2022-08-19T17:25:43;20.40;99.90
47921;DHT22;33686;48.770;9.186;2022-08-19T17:28:10;20.30;99.90
47921;DHT22;33686;48.770;9.186;2022-08-19T17:30:36;20.30;99.90
47921;DHT22;33686;48.770;9.186;2022-08-19T17:33:02;20.20;99.90
47921;DHT22;33686;48.770;9.186;2022-08-19T17:35:28;20.30;99.90
47921;DHT22;33686;48.770;9.186;2022-08-19T17:37:53;20.20;99.90
47921;DHT22;33686;48.770;9.186;2022-08-19T17:40:19;20.20;99.90
47921;DHT22;33686;48.770;9.186;2022-08-19T17:42:45;20.10;99.90
47921;DHT22;33686;48.770;9.186;2022-08-19T17:45:11;20.20;99.90
47921;DHT22;33686;48.770;9.186;2022-08-19T17:47:37;20.10;99.90
47921;DHT22;33686;48.770;9.186;2022-08-19T17:50:03;20.10;99.90
47921;DHT22;33686;48.770;9.186;2022-08-19T17:52:29;20.10;99.90
47921;DHT22;33686;48.770;9.186;2022-08-19T17:54:54;20.10;99.90
47921;DHT22;33686;48.770;9.186;2022-08-19T17:57:20;20.20;99.90
47921;DHT22;33686;48.770;9.186;2022-08-19T17:59:46;20.30;99.90
47921;DHT22;33686;48.770;9.186;2022-08-19T18:02:12;20.20;99.90
47921;DHT22;33686;48.770;9.186;2022-08-19T18:04:39;20.20;99.90
47921;DHT22;33686;48.770;9.186;2022-08-19T18:07:05;20.20;99.90
47921;DHT22;33686;48.770;9.186;2022-08-19T18:09:32;20.20;99.90
47921;DHT22;33686;48.770;9.186;2022-08-19T18:11:58;20.20;99.90
47921;DHT22;33686;48.770;9.186;2022-08-19T18:14:25;20.30;99.90
47921;DHT22;33686;48.770;9.186;2022-08-19T18:16:53;20.40;99.90
47921;DHT22;33686;48.770;9.186;2022-08-19T18:19:20;20.30;99.90
47921;DHT22;33686;48.770;9.186;2022-08-19T18:21:46;20.40;99.90
47921;DHT22;33686;48.770;9.186;2022-08-19T18:24:11;20.30;99.90
47921;DHT22;33686;48.770;9.186;2022-08-19T18:26:37;20.30;99.90
47921;DHT22;33686;48.770;9.186;2022-08-19T18:29:04;20.30;99.90
47921;DHT22;33686;48.770;9.186;2022-08-19T18:31:29;20.20;99.90
47921;DHT22;33686;48.770;9.186;2022-08-19T18:33:55;20.10;99.90
47921;DHT22;33686;48.770;9.186;2022-08-19T18:36:21;20.00;99.90
47921;DHT22;33686;48.770;9.186;2022-08-19T18:38:48;19.90;99.90
47921;DHT22;33686;48.770;9.186;2022-08-19T18:41:32;20.00;99.90
47921;DHT22;33686;48.770;9.186;2022-08-19T18:44:16;20.10;99.90
47921;DHT22;33686;48.770;9.186;2022-08-19T18:47:01;20.10;99.90
47921;DHT22;33686;48.770;9.186;2022-08-19T18:49:45;20.10;99.90
47921;DHT22;33686;48.770;9.186;2022-08-19T18:52:12;20.10;99.90
47921;DHT22;33686;48.770;9.186;2022-08-19T18:54:38;20.10;99.90
47921;DHT22;33686;48.770;9.186;2022-08-19T18:57:04;20.00;99.90
47921;DHT22;33686;48.770;9.186;2022-08-19T18:59:30;20.10;99.90
47921;DHT22;33686;48.770;9.186;2022-08-19T19:01:57;20.10;99.90
47921;DHT22;33686;48.770;9.186;2022-08-19T19:04:31;20.10;99.90
47921;DHT22;33686;48.770;9.186;2022-08-19T19:07:00;20.10;99.90
47921;DHT22;33686;48.770;9.186;2022-08-19T19:09:26;20.20;99.90
47921;DHT22;33686;48.770;9.186;2022-08-19T19:11:53;20.30;99.90
47921;DHT22;33686;48.770;9.186;2022-08-19T19:14:26;20.20;99.90
47921;DHT22;33686;48.770;9.186;2022-08-19T19:16:57;20.20;99.90
47921;DHT22;33686;48.770;9.186;2022-08-19T19:19:23;20.20;99.90
47921;DHT22;33686;48.770;9.186;2022-08-19T19:21:50;20.20;99.90
47921;DHT22;33686;48.770;9.186;2022-08-19T19:24:18;20.20;99.90
47921;DHT22;33686;48.770;9.186;2022-08-19T19:26:45;20.20;99.90
47921;DHT22;33686;48.770;9.186;2022-08-19T19:29:11;20.20;99.90
47921;DHT22;33686;48.770;9.186;2022-08-19T19:31:37;20.20;99.90
47921;DHT22;33686;48.770;9.186;2022-08-19T19:34:02;20.30;99.90
47921;DHT22;33686;48.770;9.186;2022-08-19T19:36:28;20.20;99.90
47921;DHT22;33686;48.770;9.186;2022-08-19T19:38:54;20.30;99.90
47921;DHT22;33686;48.770;9.186;2022-08-19T19:41:20;20.20;99.90
47921;DHT22;33686;48.770;9.186;2022-08-19T19:43:51;20.20;99.90
47921;DHT22;33686;48.770;9.186;2022-08-19T19:46:16;20.10;99.90
47921;DHT22;33686;48.770;9.186;2022-08-19T19:48:45;19.90;99.90
47921;DHT22;33686;48.770;9.186;2022-08-19T19:51:12;19.80;99.90
47921;DHT22;33686;48.770;9.186;2022-08-19T19:53:37;19.70;99.90
47921;DHT22;33686;48.770;9.186;2022-08-19T19:56:03;19.80;99.90
47921;DHT22;33686;48.770;9.186;2022-08-19T19:58:29;19.80;99.90
47921;DHT22;33686;48.770;9.186;2022-08-19T20:00:56;19.90;99.90
47921;DHT22;33686;48.770;9.186;2022-08-19T20:03:22;20.10;99.90
47921;DHT22;33686;48.770;9.186;2022-08-19T20:05:48;20.10;99.90
47921;DHT22;33686;48.770;9.186;2022-08-19T20:08:14;20.20;99.90
47921;DHT22;33686;48.770;9.186;2022-08-19T20:11:02;20.30;99.90
47921;DHT22;33686;48.770;9.186;2022-08-19T20:13:28;20.30;99.90
47921;DHT22;33686;48.770;9.186;2022-08-19T20:15:54;20.30;99.90
47921;DHT22;33686;48.770;9.186;2022-08-19T20:18:19;20.40;99.90
47921;DHT22;33686;48.770;9.186;2022-08-19T20:20:46;20.50;99.90
47921;DHT22;33686;48.770;9.186;2022-08-19T20:23:18;20.60;99.90
47921;DHT22;33686;48.770;9.186;2022-08-19T20:25:44;20.60;99.90
47921;DHT22;33686;48.770;9.186;2022-08-19T20:28:10;20.70;99.90
47921;DHT22;33686;48.770;9.186;2022-08-19T20:30:37;20.80;99.90
47921;DHT22;33686;48.770;9.186;2022-08-19T20:33:02;20.90;99.90
47921;DHT22;33686;48.770;9.186;2022-08-19T20:35:31;20.90;99.90
47921;DHT22;33686;48.770;9.186;2022-08-19T20:37:57;21.00;99.90
47921;DHT22;33686;48.770;9.186;2022-08-19T20:40:24;21.10;99.90
47921;DHT22;33686;48.770;9.186;2022-08-19T20:42:49;21.10;99.90
47921;DHT22;33686;48.770;9.186;2022-08-19T20:45:15;21.20;99.90
47921;DHT22;33686;48.770;9.186;2022-08-19T20:47:41;21.20;99.90
47921;DHT22;33686;48.770;9.186;2022-08-19T20:50:07;21.20;99.90
47921;DHT22;33686;48.770;9.186;2022-08-19T20:52:33;21.30;99.90
47921;DHT22;33686;48.770;9.186;2022-08-19T20:55:00;21.30;99.90
47921;DHT22;33686;48.770;9.186;2022-08-19T20:57:25;21.30;99.90
47921;DHT22;33686;48.770;9.186;2022-08-19T20:59:52;21.40;99.90
